createdAt,value
2018-12-01T00:00:59.710Z,100491.89
2018-12-01T00:03:08.548Z,100487.11
2018-12-01T00:05:35.850Z,100486.30
2018-12-01T00:07:43.800Z,100487.71
2018-12-01T00:09:51.815Z,100483.83
2018-12-01T00:12:01.089Z,100483.01
2018-12-01T00:14:09.054Z,100487.00
2018-12-01T00:16:17.245Z,100474.41
2018-12-01T00:18:25.298Z,100480.55
2018-12-01T00:20:38.377Z,100479.80
2018-12-01T00:22:47.377Z,100484.21
2018-12-01T00:24:55.878Z,100480.84
2018-12-01T00:27:03.947Z,100482.23
2018-12-01T00:29:13.157Z,100477.48
2018-12-01T00:31:21.354Z,100480.10
2018-12-01T00:33:29.341Z,100482.75
2018-12-01T00:35:37.651Z,100481.03
2018-12-01T00:37:45.708Z,100482.80
2018-12-01T00:39:53.740Z,100481.89
2018-12-01T00:42:02.102Z,100479.24
2018-12-01T00:44:10.151Z,100479.17
2018-12-01T00:46:18.413Z,100484.81
2018-12-01T00:48:26.476Z,100484.32
2018-12-01T00:50:34.443Z,100488.20
2018-12-01T00:52:42.543Z,100489.85
2018-12-01T00:54:51.484Z,100488.06
2018-12-01T00:56:59.426Z,100488.84
2018-12-01T00:59:07.747Z,100492.73
2018-12-01T01:01:15.698Z,100496.16
2018-12-01T01:03:23.725Z,100504.39
2018-12-01T01:05:32.849Z,100509.17
2018-12-01T01:07:41.210Z,100508.73
2018-12-01T01:09:49.297Z,100513.47
2018-12-01T01:11:59.692Z,100523.42
2018-12-01T01:14:16.882Z,100518.14
2018-12-01T01:16:28.944Z,100521.13
2018-12-01T01:18:37.064Z,100516.76
2018-12-01T01:20:45.270Z,100522.78
2018-12-01T01:22:53.769Z,100526.22
2018-12-01T01:25:01.788Z,100527.94
2018-12-01T01:27:09.827Z,100531.30
2018-12-01T01:29:17.955Z,100526.88
2018-12-01T01:31:27.025Z,100534.22
2018-12-01T01:33:35.292Z,100534.58
2018-12-01T01:35:44.054Z,100534.02
2018-12-01T01:37:52.166Z,100529.19
2018-12-01T01:40:00.579Z,100531.73
2018-12-01T01:42:09.278Z,100530.42
2018-12-01T01:44:17.236Z,100528.63
2018-12-01T01:46:25.424Z,100522.41
2018-12-01T01:48:33.389Z,100524.98
2018-12-01T01:50:41.483Z,100524.13
2018-12-01T01:52:49.989Z,100523.27
2018-12-01T01:54:58.084Z,100530.72
2018-12-01T01:57:07.172Z,100528.09
2018-12-01T01:59:15.277Z,100527.72
2018-12-01T02:01:23.365Z,100523.80
2018-12-01T02:03:31.287Z,100530.34
2018-12-01T02:05:39.573Z,100530.79
2018-12-01T02:07:47.592Z,100521.63
2018-12-01T02:09:55.547Z,100520.36
2018-12-01T02:12:03.585Z,100517.73
2018-12-01T02:14:12.034Z,100518.59
2018-12-01T02:16:19.981Z,100515.57
2018-12-01T02:18:28.927Z,100519.05
2018-12-01T02:20:40.432Z,100521.17
2018-12-01T02:22:46.278Z,100516.31
2018-12-01T02:24:54.292Z,100514.52
2018-12-01T02:27:02.256Z,100514.06
2018-12-01T02:29:10.281Z,100515.83
2018-12-01T02:31:18.335Z,100516.69
2018-12-01T02:33:26.308Z,100515.66
2018-12-01T02:35:35.474Z,100515.66
2018-12-01T02:37:43.466Z,100517.34
2018-12-01T02:39:51.403Z,100512.48
2018-12-01T02:41:59.456Z,100512.89
2018-12-01T02:45:00.736Z,100508.95
2018-12-01T02:47:14.583Z,100496.77
2018-12-01T02:49:22.604Z,100500.41
2018-12-01T02:51:30.488Z,100504.45
2018-12-01T02:53:38.529Z,100500.61
2018-12-01T02:55:46.481Z,100501.58
2018-12-01T02:57:54.843Z,100510.38
2018-12-01T03:00:02.918Z,100504.77
2018-12-01T03:02:10.963Z,100496.10
2018-12-01T03:04:18.965Z,100497.48
2018-12-01T03:06:26.870Z,100504.92
2018-12-01T03:08:35.394Z,100500.55
2018-12-01T03:10:43.457Z,100502.31
2018-12-01T03:12:52.374Z,100491.88
2018-12-01T03:15:00.671Z,100487.99
2018-12-01T03:17:08.850Z,100485.91
2018-12-01T03:19:17.118Z,100489.01
2018-12-01T03:21:25.087Z,100489.58
2018-12-01T03:23:33.114Z,100493.98
2018-12-01T03:25:41.196Z,100492.34
2018-12-01T03:27:50.068Z,100489.36
2018-12-01T03:29:58.066Z,100491.68
2018-12-01T03:32:06.026Z,100488.77
2018-12-01T03:34:14.015Z,100480.66
2018-12-01T03:36:21.995Z,100493.37
2018-12-01T03:38:30.012Z,100490.08
2018-12-01T03:45:06.519Z,100505.16
2018-12-01T03:47:14.496Z,100510.50
2018-12-01T03:49:22.546Z,100507.09
2018-12-01T03:51:30.452Z,100504.45
2018-12-01T03:53:38.397Z,100498.66
2018-12-01T03:55:46.353Z,100503.75
2018-12-01T03:57:54.497Z,100501.44
2018-12-01T04:00:02.540Z,100500.39
2018-12-01T04:02:11.469Z,100500.69
2018-12-01T04:04:19.443Z,100503.16
2018-12-01T04:06:27.451Z,100505.70
2018-12-01T04:08:35.399Z,100498.16
2018-12-01T04:10:43.348Z,100500.73
2018-12-01T04:12:51.522Z,100508.88
2018-12-01T04:14:59.520Z,100508.77
2018-12-01T04:17:07.799Z,100506.16
2018-12-01T04:19:15.969Z,100504.35
2018-12-01T04:21:23.965Z,100510.90
2018-12-01T04:23:31.930Z,100506.93
2018-12-01T04:25:39.869Z,100510.41
2018-12-01T04:27:47.820Z,100511.27
2018-12-01T04:29:55.739Z,100512.13
2018-12-01T04:32:04.033Z,100518.59
2018-12-01T04:34:13.001Z,100513.77
2018-12-01T04:36:20.923Z,100514.97
2018-12-01T04:38:28.947Z,100515.37
2018-12-01T04:40:36.886Z,100520.98
2018-12-01T04:42:46.569Z,100516.08
2018-12-01T04:44:54.618Z,100517.77
2018-12-01T04:47:02.535Z,100519.07
2018-12-01T04:49:10.446Z,100515.63
2018-12-01T04:51:18.467Z,100516.16
2018-12-01T04:53:26.427Z,100516.61
2018-12-01T04:55:34.442Z,100519.27
2018-12-01T04:57:42.361Z,100520.69
2018-12-01T04:59:50.407Z,100525.55
2018-12-01T05:01:58.402Z,100517.70
2018-12-01T05:04:06.399Z,100522.97
2018-12-01T05:06:15.325Z,100519.98
2018-12-01T05:08:23.268Z,100522.63
2018-12-01T05:10:31.480Z,100520.50
2018-12-01T05:12:39.493Z,100520.61
2018-12-01T05:14:47.488Z,100531.98
2018-12-01T05:16:55.452Z,100529.36
2018-12-01T05:19:03.653Z,100526.75
2018-12-01T05:21:11.570Z,100526.26
2018-12-01T05:23:19.921Z,100526.15
2018-12-01T05:25:27.904Z,100527.42
2018-12-01T05:27:35.862Z,100525.20
2018-12-01T05:29:44.041Z,100526.89
2018-12-01T05:31:52.084Z,100534.70
2018-12-01T05:34:00.011Z,100534.22
2018-12-01T05:36:08.425Z,100533.25
2018-12-01T05:38:17.235Z,100537.55
2018-12-01T05:40:25.620Z,100544.42
2018-12-01T05:42:33.595Z,100545.66
2018-12-01T05:44:41.535Z,100546.86
2018-12-01T05:46:49.651Z,100550.78
2018-12-01T05:48:57.651Z,100547.71
2018-12-01T05:51:05.717Z,100544.69
2018-12-01T05:53:13.731Z,100554.30
2018-12-01T05:55:22.368Z,100557.36
2018-12-01T05:57:30.296Z,100559.53
2018-12-01T05:59:38.235Z,100557.77
2018-12-01T06:01:46.178Z,100562.11
2018-12-01T06:03:54.165Z,100573.41
2018-12-01T06:06:02.223Z,100574.71
2018-12-01T06:08:10.640Z,100567.76
2018-12-01T06:10:23.335Z,100578.72
2018-12-01T06:12:31.302Z,100578.83
2018-12-01T06:14:39.276Z,100575.50
2018-12-01T06:16:47.283Z,100579.09
2018-12-01T06:18:55.351Z,100574.86
2018-12-01T06:21:03.636Z,100573.22
2018-12-01T06:23:11.617Z,100573.29
2018-12-01T06:25:24.153Z,100582.52
2018-12-01T06:27:32.223Z,100579.56
2018-12-01T06:29:40.260Z,100589.73
2018-12-01T06:31:48.351Z,100585.95
2018-12-01T06:33:56.498Z,100596.10
2018-12-01T06:36:04.571Z,100606.27
2018-12-01T06:38:12.597Z,100608.95
2018-12-01T06:40:21.923Z,100612.53
2018-12-01T06:42:29.900Z,100613.01
2018-12-01T06:44:37.842Z,100618.27
2018-12-01T06:46:45.901Z,100616.17
2018-12-01T06:48:53.950Z,100621.47
2018-12-01T06:51:01.930Z,100608.95
2018-12-01T06:53:10.743Z,100611.59
2018-12-01T06:55:18.807Z,100612.97
2018-12-01T06:57:26.856Z,100617.72
2018-12-01T06:59:34.889Z,100611.15
2018-12-01T07:01:42.843Z,100612.39
2018-12-01T07:03:50.857Z,100612.77
2018-12-01T07:05:58.882Z,100612.73
2018-12-01T07:08:07.040Z,100606.23
2018-12-01T07:10:25.209Z,100611.98
2018-12-01T07:12:35.592Z,100605.92
2018-12-01T07:14:43.724Z,100604.75
2018-12-01T07:16:51.695Z,100604.37
2018-12-01T07:19:19.590Z,100603.06
2018-12-01T07:21:28.191Z,100605.67
2018-12-01T07:23:36.238Z,100604.84
2018-12-01T07:25:44.233Z,100606.19
2018-12-01T07:27:52.318Z,100602.72
2018-12-01T07:30:01.213Z,100608.39
2018-12-01T07:32:09.341Z,100610.11
2018-12-01T07:34:17.312Z,100612.69
2018-12-01T07:36:25.332Z,100614.76
2018-12-01T07:38:33.316Z,100613.42
2018-12-01T07:40:42.232Z,100602.03
2018-12-01T07:42:50.364Z,100611.18
2018-12-01T07:44:58.527Z,100615.63
2018-12-01T07:47:06.797Z,100604.75
2018-12-01T07:49:14.877Z,100610.97
2018-12-01T07:51:23.071Z,100610.14
2018-12-01T07:53:31.315Z,100605.88
2018-12-01T07:55:39.277Z,100610.25
2018-12-01T07:57:48.467Z,100612.48
2018-12-01T07:59:56.633Z,100609.45
2018-12-01T08:02:04.959Z,100609.52
2018-12-01T08:04:12.997Z,100603.59
2018-12-01T08:06:21.194Z,100601.80
2018-12-01T08:08:29.225Z,100602.28
2018-12-01T08:10:37.213Z,100604.14
2018-12-01T08:12:46.128Z,100600.70
2018-12-01T08:14:54.200Z,100604.65
2018-12-01T08:17:02.237Z,100601.66
2018-12-01T08:19:10.402Z,100596.36
2018-12-01T08:21:18.659Z,100589.80
2018-12-01T08:23:26.952Z,100592.82
2018-12-01T08:25:34.954Z,100580.55
2018-12-01T08:27:43.019Z,100584.88
2018-12-01T08:29:51.069Z,100582.68
2018-12-01T08:31:59.227Z,100584.81
2018-12-01T08:34:08.910Z,100577.31
2018-12-01T08:36:16.930Z,100573.33
2018-12-01T08:38:24.943Z,100573.27
2018-12-01T08:40:34.269Z,100577.49
2018-12-01T08:42:42.340Z,100573.92
2018-12-01T08:44:50.424Z,100572.06
2018-12-01T08:46:58.513Z,100584.20
2018-12-01T08:49:06.824Z,100581.90
2018-12-01T08:51:15.008Z,100582.63
2018-12-01T08:53:23.599Z,100574.67
2018-12-01T08:55:31.562Z,100574.19
2018-12-01T08:57:39.560Z,100563.69
2018-12-01T08:59:47.686Z,100564.86
2018-12-01T09:01:55.706Z,100577.80
2018-12-01T09:04:05.324Z,100577.20
2018-12-01T09:06:13.423Z,100586.22
2018-12-01T09:08:21.851Z,100586.48
2018-12-01T09:10:29.837Z,100583.72
2018-12-01T09:12:38.818Z,100593.19
2018-12-01T09:14:47.608Z,100587.42
2018-12-01T09:16:55.585Z,100592.52
2018-12-01T09:19:03.584Z,100592.81
2018-12-01T09:21:12.263Z,100593.08
2018-12-01T09:23:20.360Z,100601.60
2018-12-01T09:25:28.647Z,100600.17
2018-12-01T09:27:36.743Z,100601.78
2018-12-01T09:29:44.721Z,100591.20
2018-12-01T09:31:52.773Z,100598.11
2018-12-01T09:34:00.722Z,100589.36
2018-12-01T09:36:09.464Z,100592.31
2018-12-01T09:38:17.674Z,100592.23
2018-12-01T09:40:26.279Z,100587.78
2018-12-01T09:42:34.562Z,100585.98
2018-12-01T09:44:42.889Z,100595.11
2018-12-01T09:46:53.758Z,100590.16
2018-12-01T09:49:01.850Z,100589.55
2018-12-01T09:51:09.966Z,100594.19
2018-12-01T09:53:18.046Z,100593.58
2018-12-01T09:55:32.812Z,100593.02
2018-12-01T09:57:41.947Z,100591.20
2018-12-01T09:59:50.019Z,100603.70
2018-12-01T10:01:58.145Z,100600.02
2018-12-01T10:04:06.666Z,100597.69
2018-12-01T10:06:14.735Z,100595.88
2018-12-01T10:08:22.737Z,100595.92
2018-12-01T10:10:30.944Z,100594.61
2018-12-01T10:12:38.925Z,100595.92
2018-12-01T10:14:47.021Z,100594.20
2018-12-01T10:16:55.164Z,100592.48
2018-12-01T10:19:03.164Z,100585.48
2018-12-01T10:21:12.149Z,100593.14
2018-12-01T10:23:20.172Z,100590.31
2018-12-01T10:25:28.911Z,100585.19
2018-12-01T10:27:34.926Z,100581.40
2018-12-01T10:29:43.027Z,100568.90
2018-12-01T10:31:51.161Z,100567.42
2018-12-01T10:33:59.224Z,100566.88
2018-12-01T10:36:07.328Z,100563.67
2018-12-01T10:38:20.077Z,100560.88
2018-12-01T10:40:28.275Z,100560.70
2018-12-01T10:42:36.324Z,100554.45
2018-12-01T10:44:44.622Z,100552.55
2018-12-01T10:46:53.278Z,100557.22
2018-12-01T10:49:01.582Z,100545.69
2018-12-01T10:51:09.684Z,100539.53
2018-12-01T10:53:17.768Z,100542.56
2018-12-01T10:55:36.703Z,100541.64
2018-12-01T10:57:44.927Z,100537.16
2018-12-01T10:59:52.967Z,100534.54
2018-12-01T11:02:18.614Z,100531.86
2018-12-01T11:04:39.634Z,100530.60
2018-12-01T11:06:48.064Z,100530.69
2018-12-01T11:08:56.175Z,100529.94
2018-12-01T11:11:04.179Z,100532.30
2018-12-01T11:13:12.326Z,100526.27
2018-12-01T11:15:23.812Z,100520.22
2018-12-01T11:17:32.777Z,100514.84
2018-12-01T11:19:40.802Z,100520.03
2018-12-01T11:21:48.816Z,100521.75
2018-12-01T11:23:57.590Z,100511.75
2018-12-01T11:26:05.620Z,100515.19
2018-12-01T11:28:10.791Z,100519.40
2018-12-01T11:30:20.257Z,100515.72
2018-12-01T11:32:28.484Z,100513.77
2018-12-01T11:34:36.573Z,100512.41
2018-12-01T11:36:45.373Z,100510.09
2018-12-01T11:38:53.522Z,100498.29
2018-12-01T11:41:01.659Z,100490.05
2018-12-01T11:43:11.112Z,100498.74
2018-12-01T11:45:19.908Z,100497.06
2018-12-01T11:47:28.272Z,100497.43
2018-12-01T11:49:36.794Z,100503.03
2018-12-01T11:51:44.846Z,100501.98
2018-12-01T11:53:53.552Z,100495.78
2018-12-01T11:56:01.568Z,100502.25
2018-12-01T11:58:09.764Z,100500.94
2018-12-01T12:00:22.896Z,100500.12
2018-12-01T12:02:30.897Z,100498.86
2018-12-01T12:04:38.848Z,100498.86
2018-12-01T12:06:47.336Z,100493.47
2018-12-01T12:08:55.456Z,100497.57
2018-12-01T12:11:04.364Z,100493.39
2018-12-01T12:13:12.491Z,100494.56
2018-12-01T12:15:21.639Z,100487.81
2018-12-01T12:17:30.820Z,100488.61
2018-12-01T12:19:39.592Z,100487.61
2018-12-01T12:21:47.894Z,100480.94
2018-12-01T12:23:56.147Z,100478.17
2018-12-01T12:26:04.672Z,100469.33
2018-12-01T12:28:12.852Z,100463.47
2018-12-01T12:30:25.973Z,100455.94
2018-12-01T12:32:33.011Z,100443.27
2018-12-01T12:34:41.195Z,100436.16
2018-12-01T12:36:49.227Z,100429.98
2018-12-01T12:38:58.291Z,100427.36
2018-12-01T12:41:06.925Z,100429.98
2018-12-01T12:43:15.826Z,100431.84
2018-12-01T12:45:24.050Z,100426.70
2018-12-01T12:47:33.043Z,100426.84
2018-12-01T12:49:41.254Z,100427.30
2018-12-01T12:51:49.449Z,100419.02
2018-12-01T12:53:57.586Z,100427.70
2018-12-01T12:56:05.652Z,100422.81
2018-12-01T12:58:14.637Z,100423.62
2018-12-01T13:00:26.765Z,100423.56
2018-12-01T13:02:34.752Z,100420.48
2018-12-01T13:04:42.924Z,100423.02
2018-12-01T13:06:51.230Z,100419.02
2018-12-01T13:08:59.225Z,100425.08
2018-12-01T13:11:07.808Z,100422.36
2018-12-01T13:13:15.813Z,100425.44
2018-12-01T13:15:23.855Z,100421.50
2018-12-01T13:17:32.003Z,100418.51
2018-12-01T13:19:40.014Z,100415.88
2018-12-01T13:21:48.277Z,100416.80
2018-12-01T13:23:56.414Z,100429.53
2018-12-01T13:26:04.719Z,100420.99
2018-12-01T13:28:26.373Z,100427.61
2018-12-01T13:30:31.954Z,100422.50
2018-12-01T13:32:39.939Z,100418.16
2018-12-01T13:34:48.002Z,100412.91
2018-12-01T13:36:55.973Z,100415.48
2018-12-01T13:39:04.072Z,100415.88
2018-12-01T13:41:13.161Z,100408.83
2018-12-01T13:43:21.222Z,100404.52
2018-12-01T13:45:29.294Z,100407.14
2018-12-01T13:47:37.355Z,100409.31
2018-12-01T13:49:45.779Z,100401.49
2018-12-01T13:51:53.758Z,100403.20
2018-12-01T13:54:01.743Z,100403.20
2018-12-01T13:56:09.843Z,100396.55
2018-12-01T13:58:17.966Z,100395.70
2018-12-01T14:00:29.843Z,100392.95
2018-12-01T14:02:37.884Z,100392.05
2018-12-01T14:04:45.858Z,100388.50
2018-12-01T14:06:54.034Z,100383.61
2018-12-01T14:09:02.048Z,100376.19
2018-12-01T14:11:10.075Z,100383.55
2018-12-01T14:13:18.377Z,100379.56
2018-12-01T14:15:26.970Z,100381.64
2018-12-01T14:17:35.251Z,100377.64
2018-12-01T14:19:44.985Z,100373.24
2018-12-01T14:21:53.644Z,100374.90
2018-12-01T14:24:01.750Z,100373.03
2018-12-01T14:26:09.956Z,100374.75
2018-12-01T14:28:18.032Z,100374.69
2018-12-01T14:30:26.339Z,100371.20
2018-12-01T14:32:31.494Z,100370.34
2018-12-01T14:34:40.222Z,100366.41
2018-12-01T14:36:48.349Z,100370.34
2018-12-01T14:38:56.440Z,100362.92
2018-12-01T14:41:04.555Z,100364.23
2018-12-01T14:43:12.857Z,100368.64
2018-12-01T14:45:21.164Z,100361.27
2018-12-01T14:47:29.231Z,100363.84
2018-12-01T14:49:37.266Z,100366.92
2018-12-01T14:51:45.328Z,100367.78
2018-12-01T14:53:53.321Z,100361.77
2018-12-01T14:56:02.526Z,100357.42
2018-12-01T14:58:10.851Z,100363.53
2018-12-01T15:00:26.210Z,100366.62
2018-12-01T15:02:34.295Z,100374.09
2018-12-01T15:04:42.508Z,100363.25
2018-12-01T15:06:56.969Z,100365.97
2018-12-01T15:09:06.906Z,100370.82
2018-12-01T15:11:14.837Z,100370.57
2018-12-01T15:13:22.951Z,100369.37
2018-12-01T15:15:31.296Z,100379.57
2018-12-01T15:17:39.491Z,100370.09
2018-12-01T15:19:47.507Z,100374.17
2018-12-01T15:21:56.735Z,100373.38
2018-12-01T15:24:05.594Z,100371.81
2018-12-01T15:26:13.652Z,100370.30
2018-12-01T15:28:22.075Z,100368.22
2018-12-01T15:30:31.374Z,100362.16
2018-12-01T15:32:41.249Z,100364.94
2018-12-01T15:34:49.417Z,100362.42
2018-12-01T15:36:58.491Z,100362.97
2018-12-01T15:39:11.326Z,100356.56
2018-12-01T15:41:19.578Z,100357.56
2018-12-01T15:43:27.852Z,100359.39
2018-12-01T15:45:36.075Z,100352.06
2018-12-01T15:47:44.369Z,100351.71
2018-12-01T15:49:53.195Z,100350.14
2018-12-01T15:52:01.248Z,100347.12
2018-12-01T15:54:10.041Z,100347.17
2018-12-01T15:56:18.068Z,100346.27
2018-12-01T15:58:26.946Z,100345.80
2018-12-01T16:00:35.168Z,100344.95
2018-12-01T16:02:43.211Z,100337.53
2018-12-01T16:04:51.352Z,100343.18
2018-12-01T16:06:59.347Z,100334.91
2018-12-01T16:09:10.755Z,100337.93
2018-12-01T16:11:19.021Z,100334.91
2018-12-01T16:13:28.417Z,100331.91
2018-12-01T16:15:39.305Z,100326.66
2018-12-01T16:17:47.323Z,100331.63
2018-12-01T16:21:53.674Z,100325.15
2018-12-01T16:24:01.616Z,100326.68
2018-12-01T16:26:09.794Z,100324.52
2018-12-01T16:28:18.055Z,100317.55
2018-12-01T16:30:30.948Z,100325.47
2018-12-01T16:32:38.895Z,100326.42
2018-12-01T16:34:47.550Z,100323.39
2018-12-01T16:36:56.471Z,100315.98
2018-12-01T16:39:05.106Z,100311.19
2018-12-01T16:41:25.455Z,100314.21
2018-12-01T16:43:36.085Z,100309.36
2018-12-01T16:45:45.190Z,100305.08
2018-12-01T16:47:53.258Z,100300.75
2018-12-01T16:50:01.277Z,100302.06
2018-12-01T16:52:10.076Z,100300.89
2018-12-01T16:54:18.775Z,100293.08
2018-12-01T16:56:27.107Z,100288.34
2018-12-01T16:58:35.570Z,100288.83
2018-12-01T17:00:44.187Z,100284.03
2018-12-01T17:02:59.940Z,100283.63
2018-12-01T17:05:11.884Z,100279.80
2018-12-01T17:07:20.206Z,100274.25
2018-12-01T17:09:28.421Z,100268.34
2018-12-01T17:11:36.997Z,100264.52
2018-12-01T17:13:45.111Z,100260.21
2018-12-01T17:15:53.151Z,100267.22
2018-12-01T17:18:01.672Z,100266.77
2018-12-01T17:20:12.988Z,100268.08
2018-12-01T17:22:21.102Z,100264.14
2018-12-01T17:24:30.955Z,100271.92
2018-12-01T17:26:38.991Z,100268.39
2018-12-01T17:28:47.106Z,100269.65
2018-12-01T17:30:55.159Z,100273.12
2018-12-01T17:33:04.383Z,100275.30
2018-12-01T17:35:14.730Z,100268.73
2018-12-01T17:37:22.766Z,100260.47
2018-12-01T17:39:31.400Z,100258.25
2018-12-01T17:41:39.432Z,100257.34
2018-12-01T17:43:59.237Z,100256.48
2018-12-01T17:46:08.303Z,100255.62
2018-12-01T17:48:16.825Z,100244.23
2018-12-01T17:50:24.918Z,100245.59
2018-12-01T17:52:33.152Z,100245.14
2018-12-01T17:54:41.195Z,100243.42
2018-12-01T17:56:49.260Z,100236.47
2018-12-01T17:58:57.318Z,100234.30
2018-12-01T18:01:05.348Z,100237.37
2018-12-01T18:03:13.424Z,100241.31
2018-12-01T18:05:42.384Z,100239.48
2018-12-01T18:07:50.453Z,100242.57
2018-12-01T18:09:58.708Z,100243.94
2018-12-01T18:12:07.027Z,100239.74
2018-12-01T18:14:15.506Z,100237.27
2018-12-01T18:16:23.631Z,100235.66
2018-12-01T18:18:31.837Z,100230.50
2018-12-01T18:20:39.890Z,100232.77
2018-12-01T18:22:58.797Z,100233.77
2018-12-01T18:25:08.673Z,100240.78
2018-12-01T18:27:16.800Z,100237.90
2018-12-01T18:29:24.878Z,100234.20
2018-12-01T18:31:35.228Z,100237.84
2018-12-01T18:33:46.481Z,100238.38
2018-12-01T18:35:52.286Z,100242.37
2018-12-01T18:38:00.453Z,100233.33
2018-12-01T18:40:22.572Z,100234.69
2018-12-01T18:42:30.575Z,100231.67
2018-12-01T18:44:41.809Z,100232.12
2018-12-01T18:46:50.864Z,100224.66
2018-12-01T18:48:59.006Z,100227.23
2018-12-01T18:51:07.207Z,100226.23
2018-12-01T18:53:15.474Z,100228.81
2018-12-01T18:55:24.621Z,100218.33
2018-12-01T18:57:32.656Z,100214.84
2018-12-01T18:59:40.713Z,100211.31
2018-12-01T19:01:51.358Z,100213.89
2018-12-01T19:03:59.456Z,100207.39
2018-12-01T19:06:08.282Z,100211.45
2018-12-01T19:08:16.250Z,100204.69
2018-12-01T19:10:24.522Z,100202.17
2018-12-01T19:12:37.012Z,100199.61
2018-12-01T19:14:48.164Z,100194.86
2018-12-01T19:16:56.200Z,100192.16
2018-12-01T19:19:04.219Z,100189.48
2018-12-01T19:21:12.442Z,100193.75
2018-12-01T19:23:21.339Z,100186.27
2018-12-01T19:25:29.393Z,100191.31
2018-12-01T19:27:37.529Z,100189.44
2018-12-01T19:29:45.580Z,100182.44
2018-12-01T19:31:54.026Z,100180.53
2018-12-01T19:34:02.054Z,100180.47
2018-12-01T19:36:10.813Z,100180.92
2018-12-01T19:38:30.227Z,100178.10
2018-12-01T19:40:38.359Z,100178.75
2018-12-01T19:42:47.113Z,100177.95
2018-12-01T19:44:55.136Z,100172.70
2018-12-01T19:47:03.176Z,100172.25
2018-12-01T19:49:11.269Z,100166.55
2018-12-01T19:51:19.365Z,100160.00
2018-12-01T19:53:27.510Z,100161.27
2018-12-01T19:55:35.646Z,100155.11
2018-12-01T19:57:44.803Z,100160.35
2018-12-01T19:59:52.927Z,100159.50
2018-12-01T20:02:01.112Z,100155.67
2018-12-01T20:04:09.674Z,100148.72
2018-12-01T20:06:17.785Z,100152.28
2018-12-01T20:08:26.175Z,100148.72
2018-12-01T20:10:57.377Z,100149.20
2018-12-01T20:13:31.828Z,100146.64
2018-12-01T20:15:45.523Z,100144.98
2018-12-01T20:17:53.774Z,100143.81
2018-12-01T20:20:01.807Z,100139.08
2018-12-01T20:22:10.046Z,100137.86
2018-12-01T20:24:18.997Z,100137.38
2018-12-01T20:26:27.106Z,100142.50
2018-12-01T20:28:35.318Z,100130.71
2018-12-01T20:30:44.307Z,100128.55
2018-12-01T20:32:52.418Z,100141.65
2018-12-01T20:35:00.828Z,100134.64
2018-12-01T20:37:05.921Z,100137.98
2018-12-01T20:39:38.026Z,100138.78
2018-12-01T20:41:46.142Z,100125.22
2018-12-01T20:43:54.270Z,100131.69
2018-12-01T20:46:02.383Z,100118.47
2018-12-01T20:48:10.421Z,100108.39
2018-12-01T20:50:19.277Z,100120.49
2018-12-01T20:52:27.881Z,100109.95
2018-12-01T20:54:45.073Z,100112.89
2018-12-01T20:56:55.828Z,100101.89
2018-12-01T20:59:03.921Z,100100.53
2018-12-01T21:01:12.013Z,100098.22
2018-12-01T21:03:20.963Z,100086.36
2018-12-01T21:05:29.089Z,100080.66
2018-12-01T21:07:37.535Z,100083.69
2018-12-01T21:09:45.613Z,100077.59
2018-12-01T21:11:53.681Z,100078.44
2018-12-01T21:14:01.824Z,100079.81
2018-12-01T21:16:10.410Z,100073.26
2018-12-01T21:18:18.459Z,100063.68
2018-12-01T21:20:27.396Z,100061.06
2018-12-01T21:22:34.806Z,100063.08
2018-12-01T21:24:43.118Z,100044.61
2018-12-01T21:26:51.151Z,100049.80
2018-12-01T21:28:59.294Z,100048.94
2018-12-01T21:31:08.765Z,100049.80
2018-12-01T21:33:22.766Z,100050.56
2018-12-01T21:35:30.809Z,100045.26
2018-12-01T21:37:39.415Z,100048.28
2018-12-01T21:39:47.662Z,100041.73
2018-12-01T21:41:55.705Z,100046.42
2018-12-01T21:44:03.832Z,100046.36
2018-12-01T21:46:11.906Z,100048.83
2018-12-01T21:48:20.078Z,100047.06
2018-12-01T21:50:28.129Z,100041.45
2018-12-01T21:52:36.244Z,100042.38
2018-12-01T21:54:44.647Z,100038.50
2018-12-01T21:56:53.026Z,100039.50
2018-12-01T21:59:01.027Z,100042.18
2018-12-01T22:01:09.524Z,100041.38
2018-12-01T22:03:18.705Z,100030.90
2018-12-01T22:05:41.519Z,100034.83
2018-12-01T22:07:49.989Z,100027.42
2018-12-01T22:09:58.003Z,100017.39
2018-12-01T22:12:06.814Z,100016.94
2018-12-01T22:18:31.464Z,100010.78
2018-12-01T22:20:39.800Z,100001.94
2018-12-01T22:22:47.878Z,100008.41
2018-12-01T22:24:55.990Z,100007.48
2018-12-01T22:27:04.089Z,99999.63
2018-12-01T22:29:12.288Z,100007.48
2018-12-01T22:31:20.754Z,100007.89
2018-12-01T22:33:31.998Z,99997.00
2018-12-01T22:35:42.415Z,99998.92
2018-12-01T22:37:51.379Z,99994.13
2018-12-01T22:39:59.693Z,99996.70
2018-12-01T22:42:07.822Z,99991.45
2018-12-01T22:44:15.886Z,99990.45
2018-12-01T22:50:41.806Z,99981.73
2018-12-01T22:52:51.133Z,99976.09
2018-12-01T22:55:00.174Z,99979.78
2018-12-01T22:57:09.485Z,99976.39
2018-12-01T22:59:17.678Z,99969.44
2018-12-01T23:01:25.788Z,99972.83
2018-12-01T23:03:38.013Z,99968.89
2018-12-01T23:05:45.990Z,99969.23
2018-12-01T23:08:00.537Z,99961.30
2018-12-01T23:10:07.481Z,99957.28
2018-12-01T23:12:15.446Z,99958.98
2018-12-01T23:14:23.735Z,99957.61
2018-12-01T23:16:31.709Z,99949.69
2018-12-01T23:18:39.749Z,99947.83
2018-12-01T23:20:49.762Z,99946.45
2018-12-01T23:22:57.778Z,99938.98
2018-12-01T23:25:06.182Z,99938.98
2018-12-01T23:27:14.219Z,99937.58
2018-12-01T23:29:22.394Z,99934.50
2018-12-01T23:31:30.696Z,99937.21
2018-12-01T23:33:38.670Z,99936.36
2018-12-01T23:35:46.812Z,99928.55
2018-12-01T23:37:55.433Z,99926.39
2018-12-01T23:40:03.573Z,99927.40
2018-12-01T23:42:11.582Z,99916.97
2018-12-01T23:44:32.924Z,99914.47
2018-12-01T23:46:41.047Z,99915.03
2018-12-01T23:48:48.992Z,99910.70
2018-12-01T23:50:58.920Z,99912.86
2018-12-01T23:53:13.657Z,99908.93
2018-12-01T23:59:40.988Z,99901.59
